sensor_id;sensor_type;location;lat;lon;timestamp;temperature;humidity
35111;DHT22;21290;50.158;8.658;2022-07-11T06:15:12;19.20;99.90
35111;DHT22;21290;50.158;8.658;2022-07-11T06:17:39;19.30;99.90
35111;DHT22;21290;50.158;8.658;2022-07-11T06:20:06;19.50;99.90
35111;DHT22;21290;50.158;8.658;2022-07-11T06:22:32;19.50;99.90
35111;DHT22;21290;50.158;8.658;2022-07-11T06:25:21;19.60;99.90
35111;DHT22;21290;50.158;8.658;2022-07-11T06:28:11;19.70;99.90
35111;DHT22;21290;50.158;8.658;2022-07-11T06:30:37;19.70;99.90
35111;DHT22;21290;50.158;8.658;2022-07-11T06:33:04;19.90;99.90
35111;DHT22;21290;50.158;8.658;2022-07-11T06:35:31;19.90;99.90
35111;DHT22;21290;50.158;8.658;2022-07-11T06:37:57;20.10;99.90
35111;DHT22;21290;50.158;8.658;2022-07-11T06:40:24;20.20;99.90
35111;DHT22;21290;50.158;8.658;2022-07-11T06:42:51;20.30;99.90
35111;DHT22;21290;50.158;8.658;2022-07-11T06:45:18;20.40;99.90
35111;DHT22;21290;50.158;8.658;2022-07-11T06:48:07;20.50;99.90
35111;DHT22;21290;50.158;8.658;2022-07-11T06:50:34;20.50;99.90
35111;DHT22;21290;50.158;8.658;2022-07-11T06:53:00;20.60;99.90
35111;DHT22;21290;50.158;8.658;2022-07-11T06:55:27;20.70;99.90
35111;DHT22;21290;50.158;8.658;2022-07-11T06:57:53;20.70;99.90
35111;DHT22;21290;50.158;8.658;2022-07-11T07:00:40;20.70;99.90
35111;DHT22;21290;50.158;8.658;2022-07-11T07:03:07;20.80;99.90
35111;DHT22;21290;50.158;8.658;2022-07-11T07:05:45;20.90;99.90
35111;DHT22;21290;50.158;8.658;2022-07-11T07:08:35;21.10;99.90
35111;DHT22;21290;50.158;8.658;2022-07-11T07:11:02;21.40;99.90
35111;DHT22;21290;50.158;8.658;2022-07-11T07:13:34;21.60;99.90
35111;DHT22;21290;50.158;8.658;2022-07-11T07:16:01;21.90;99.90
35111;DHT22;21290;50.158;8.658;2022-07-11T07:18:28;22.20;99.90
35111;DHT22;21290;50.158;8.658;2022-07-11T07:20:55;22.50;99.90
35111;DHT22;21290;50.158;8.658;2022-07-11T07:23:21;22.80;99.90
35111;DHT22;21290;50.158;8.658;2022-07-11T07:25:48;23.10;99.90
35111;DHT22;21290;50.158;8.658;2022-07-11T07:28:15;23.30;99.90
35111;DHT22;21290;50.158;8.658;2022-07-11T07:30:42;23.50;99.90
35111;DHT22;21290;50.158;8.658;2022-07-11T07:33:11;23.60;99.90
35111;DHT22;21290;50.158;8.658;2022-07-11T07:35:37;23.60;99.90
35111;DHT22;21290;50.158;8.658;2022-07-11T07:38:05;23.60;99.80
35111;DHT22;21290;50.158;8.658;2022-07-11T07:40:31;23.60;99.90
35111;DHT22;21290;50.158;8.658;2022-07-11T07:42:58;23.50;99.80
35111;DHT22;21290;50.158;8.658;2022-07-11T07:45:28;23.30;99.90
35111;DHT22;21290;50.158;8.658;2022-07-11T07:47:54;23.20;99.80
35111;DHT22;21290;50.158;8.658;2022-07-11T07:50:21;23.10;99.90
35111;DHT22;21290;50.158;8.658;2022-07-11T07:52:51;22.80;99.90
35111;DHT22;21290;50.158;8.658;2022-07-11T07:55:17;22.60;99.90
35111;DHT22;21290;50.158;8.658;2022-07-11T07:57:45;22.40;99.90
35111;DHT22;21290;50.158;8.658;2022-07-11T08:00:11;22.10;99.90
35111;DHT22;21290;50.158;8.658;2022-07-11T08:03:06;21.80;99.90
35111;DHT22;21290;50.158;8.658;2022-07-11T08:05:34;21.70;99.90
35111;DHT22;21290;50.158;8.658;2022-07-11T08:08:05;21.70;99.90
35111;DHT22;21290;50.158;8.658;2022-07-11T08:10:31;21.90;99.90
35111;DHT22;21290;50.158;8.658;2022-07-11T08:12:58;22.20;99.90
35111;DHT22;21290;50.158;8.658;2022-07-11T08:15:25;22.40;99.90
35111;DHT22;21290;50.158;8.658;2022-07-11T08:17:51;22.50;99.90
35111;DHT22;21290;50.158;8.658;2022-07-11T08:20:19;22.60;99.90
35111;DHT22;21290;50.158;8.658;2022-07-11T08:22:46;22.80;99.90
35111;DHT22;21290;50.158;8.658;2022-07-11T08:25:14;23.00;99.80
35111;DHT22;21290;50.158;8.658;2022-07-11T08:27:41;23.20;99.60
35111;DHT22;21290;50.158;8.658;2022-07-11T08:30:08;23.70;99.20
35111;DHT22;21290;50.158;8.658;2022-07-11T08:32:38;24.50;98.20
35111;DHT22;21290;50.158;8.658;2022-07-11T08:35:07;24.80;97.70
35111;DHT22;21290;50.158;8.658;2022-07-11T08:37:34;24.80;97.40
35111;DHT22;21290;50.158;8.658;2022-07-11T08:40:00;24.50;97.10
35111;DHT22;21290;50.158;8.658;2022-07-11T08:42:28;24.40;97.30
35111;DHT22;21290;50.158;8.658;2022-07-11T08:44:55;24.20;97.50
35111;DHT22;21290;50.158;8.658;2022-07-11T08:47:22;23.80;97.70
35111;DHT22;21290;50.158;8.658;2022-07-11T08:49:49;23.70;98.20
35111;DHT22;21290;50.158;8.658;2022-07-11T08:52:15;23.50;98.30
35111;DHT22;21290;50.158;8.658;2022-07-11T08:54:43;23.30;98.60
35111;DHT22;21290;50.158;8.658;2022-07-11T08:57:09;23.10;98.70
35111;DHT22;21290;50.158;8.658;2022-07-11T08:59:37;23.00;98.70
35111;DHT22;21290;50.158;8.658;2022-07-11T09:02:08;23.00;99.00
35111;DHT22;21290;50.158;8.658;2022-07-11T09:04:35;23.10;99.00
35111;DHT22;21290;50.158;8.658;2022-07-11T09:07:02;23.20;99.00
35111;DHT22;21290;50.158;8.658;2022-07-11T09:09:29;23.30;99.30
35111;DHT22;21290;50.158;8.658;2022-07-11T09:11:57;23.40;98.90
35111;DHT22;21290;50.158;8.658;2022-07-11T09:14:28;23.40;98.70
35111;DHT22;21290;50.158;8.658;2022-07-11T09:19:25;23.40;98.80
35111;DHT22;21290;50.158;8.658;2022-07-11T09:22:26;23.50;98.80
35111;DHT22;21290;50.158;8.658;2022-07-11T09:25:07;23.60;98.40
35111;DHT22;21290;50.158;8.658;2022-07-11T09:27:50;23.80;98.00
35111;DHT22;21290;50.158;8.658;2022-07-11T09:30:27;24.00;97.90
35111;DHT22;21290;50.158;8.658;2022-07-11T09:32:58;24.30;97.30
35111;DHT22;21290;50.158;8.658;2022-07-11T09:35:27;24.50;96.70
35111;DHT22;21290;50.158;8.658;2022-07-11T09:37:54;24.70;96.60
35111;DHT22;21290;50.158;8.658;2022-07-11T09:40:21;24.90;96.40
35111;DHT22;21290;50.158;8.658;2022-07-11T09:42:56;25.00;96.30
35111;DHT22;21290;50.158;8.658;2022-07-11T09:45:24;25.00;96.00
35111;DHT22;21290;50.158;8.658;2022-07-11T09:47:52;25.10;96.00
35111;DHT22;21290;50.158;8.658;2022-07-11T09:50:20;25.50;95.70
35111;DHT22;21290;50.158;8.658;2022-07-11T09:55:29;26.40;94.60
35111;DHT22;21290;50.158;8.658;2022-07-11T09:58:16;27.60;93.80
35111;DHT22;21290;50.158;8.658;2022-07-11T10:00:44;27.90;91.60
35111;DHT22;21290;50.158;8.658;2022-07-11T10:03:12;28.20;90.70
35111;DHT22;21290;50.158;8.658;2022-07-11T10:05:58;28.50;89.70
35111;DHT22;21290;50.158;8.658;2022-07-11T10:08:25;28.70;88.40
35111;DHT22;21290;50.158;8.658;2022-07-11T10:10:52;29.70;87.40
35111;DHT22;21290;50.158;8.658;2022-07-11T10:13:19;30.00;84.60
35111;DHT22;21290;50.158;8.658;2022-07-11T10:15:51;30.00;83.40
35111;DHT22;21290;50.158;8.658;2022-07-11T10:20:58;29.60;81.90
35111;DHT22;21290;50.158;8.658;2022-07-11T10:26:07;30.70;78.70
35111;DHT22;21290;50.158;8.658;2022-07-11T10:28:41;30.70;75.50
35111;DHT22;21290;50.158;8.658;2022-07-11T10:31:18;30.50;76.40
35111;DHT22;21290;50.158;8.658;2022-07-11T10:34:07;30.20;77.20
35111;DHT22;21290;50.158;8.658;2022-07-11T10:36:40;31.00;76.80
35111;DHT22;21290;50.158;8.658;2022-07-11T10:39:17;31.90;73.30
35111;DHT22;21290;50.158;8.658;2022-07-11T10:41:45;32.30;72.50
35111;DHT22;21290;50.158;8.658;2022-07-11T10:44:12;31.80;71.30
35111;DHT22;21290;50.158;8.658;2022-07-11T10:46:38;31.00;71.90
35111;DHT22;21290;50.158;8.658;2022-07-11T11:02:28;29.20;76.60
35111;DHT22;21290;50.158;8.658;2022-07-11T11:04:55;30.90;74.50
35111;DHT22;21290;50.158;8.658;2022-07-11T11:07:39;31.60;72.00
35111;DHT22;21290;50.158;8.658;2022-07-11T11:15:45;29.70;74.30
35111;DHT22;21290;50.158;8.658;2022-07-11T11:23:24;34.80;65.90
35111;DHT22;21290;50.158;8.658;2022-07-11T11:25:50;35.80;62.70
35111;DHT22;21290;50.158;8.658;2022-07-11T11:28:20;35.40;62.00
35111;DHT22;21290;50.158;8.658;2022-07-11T11:30:54;34.30;62.40
35111;DHT22;21290;50.158;8.658;2022-07-11T11:33:22;33.20;63.20
35111;DHT22;21290;50.158;8.658;2022-07-11T11:38:27;31.40;65.10
35111;DHT22;21290;50.158;8.658;2022-07-11T11:40:54;30.60;65.90
35111;DHT22;21290;50.158;8.658;2022-07-11T11:43:27;30.30;67.40
35111;DHT22;21290;50.158;8.658;2022-07-11T11:45:54;30.00;66.20
35111;DHT22;21290;50.158;8.658;2022-07-11T11:48:31;29.70;67.90
35111;DHT22;21290;50.158;8.658;2022-07-11T11:53:39;29.40;68.90
35111;DHT22;21290;50.158;8.658;2022-07-11T11:56:11;29.30;69.60
35111;DHT22;21290;50.158;8.658;2022-07-11T11:58:38;29.00;70.00
35111;DHT22;21290;50.158;8.658;2022-07-11T12:01:04;28.70;71.10
35111;DHT22;21290;50.158;8.658;2022-07-11T12:06:22;28.20;71.80
35111;DHT22;21290;50.158;8.658;2022-07-11T12:08:50;28.20;72.80
35111;DHT22;21290;50.158;8.658;2022-07-11T12:11:17;28.30;72.60
35111;DHT22;21290;50.158;8.658;2022-07-11T12:13:43;28.50;72.30
35111;DHT22;21290;50.158;8.658;2022-07-11T12:16:13;28.60;72.10
35111;DHT22;21290;50.158;8.658;2022-07-11T12:19:03;28.60;72.30
35111;DHT22;21290;50.158;8.658;2022-07-11T12:21:30;28.80;72.10
35111;DHT22;21290;50.158;8.658;2022-07-11T12:24:01;28.90;72.20
35111;DHT22;21290;50.158;8.658;2022-07-11T12:26:28;29.00;71.20
35111;DHT22;21290;50.158;8.658;2022-07-11T12:29:05;29.10;71.50
35111;DHT22;21290;50.158;8.658;2022-07-11T12:34:10;29.30;70.50
35111;DHT22;21290;50.158;8.658;2022-07-11T12:36:37;29.40;71.10
35111;DHT22;21290;50.158;8.658;2022-07-11T12:39:04;29.30;70.60
35111;DHT22;21290;50.158;8.658;2022-07-11T12:41:32;29.30;70.90
35111;DHT22;21290;50.158;8.658;2022-07-11T12:43:59;29.20;70.90
35111;DHT22;21290;50.158;8.658;2022-07-11T12:46:44;28.90;70.70
35111;DHT22;21290;50.158;8.658;2022-07-11T12:49:14;28.70;71.20
35111;DHT22;21290;50.158;8.658;2022-07-11T12:51:42;28.50;71.70
35111;DHT22;21290;50.158;8.658;2022-07-11T12:54:15;28.50;72.80
35111;DHT22;21290;50.158;8.658;2022-07-11T12:56:52;28.60;72.40
35111;DHT22;21290;50.158;8.658;2022-07-11T12:59:20;29.20;72.10
35111;DHT22;21290;50.158;8.658;2022-07-11T13:01:57;29.60;70.60
35111;DHT22;21290;50.158;8.658;2022-07-11T13:10:06;29.80;69.40
35111;DHT22;21290;50.158;8.658;2022-07-11T13:12:33;29.70;69.80
35111;DHT22;21290;50.158;8.658;2022-07-11T13:14:59;29.70;69.90
35111;DHT22;21290;50.158;8.658;2022-07-11T13:17:37;29.90;69.60
35111;DHT22;21290;50.158;8.658;2022-07-11T13:20:05;30.00;69.10
35111;DHT22;21290;50.158;8.658;2022-07-11T13:22:34;30.00;68.70
35111;DHT22;21290;50.158;8.658;2022-07-11T13:25:01;30.00;68.70
35111;DHT22;21290;50.158;8.658;2022-07-11T13:27:27;29.80;68.50
35111;DHT22;21290;50.158;8.658;2022-07-11T13:29:54;30.10;69.70
35111;DHT22;21290;50.158;8.658;2022-07-11T13:32:20;30.30;67.30
35111;DHT22;21290;50.158;8.658;2022-07-11T13:34:47;30.40;68.00
35111;DHT22;21290;50.158;8.658;2022-07-11T13:37:15;30.20;67.90
35111;DHT22;21290;50.158;8.658;2022-07-11T13:39:42;29.90;68.70
35111;DHT22;21290;50.158;8.658;2022-07-11T13:42:08;29.80;69.40
35111;DHT22;21290;50.158;8.658;2022-07-11T13:44:35;29.60;69.10
35111;DHT22;21290;50.158;8.658;2022-07-11T13:47:03;29.30;68.80
35111;DHT22;21290;50.158;8.658;2022-07-11T13:49:30;29.10;69.20
35111;DHT22;21290;50.158;8.658;2022-07-11T13:51:56;29.30;69.40
35111;DHT22;21290;50.158;8.658;2022-07-11T13:54:23;29.40;68.90
35111;DHT22;21290;50.158;8.658;2022-07-11T13:56:50;29.40;67.60
35111;DHT22;21290;50.158;8.658;2022-07-11T13:59:16;29.40;67.20
35111;DHT22;21290;50.158;8.658;2022-07-11T14:01:43;29.70;67.50
35111;DHT22;21290;50.158;8.658;2022-07-11T14:04:10;29.90;68.10
35111;DHT22;21290;50.158;8.658;2022-07-11T14:06:36;30.20;68.10
35111;DHT22;21290;50.158;8.658;2022-07-11T14:09:21;30.30;67.70
35111;DHT22;21290;50.158;8.658;2022-07-11T14:11:47;30.50;67.30
35111;DHT22;21290;50.158;8.658;2022-07-11T14:14:14;30.70;67.00
35111;DHT22;21290;50.158;8.658;2022-07-11T14:16:41;30.90;67.20
35111;DHT22;21290;50.158;8.658;2022-07-11T14:19:08;30.90;67.40
35111;DHT22;21290;50.158;8.658;2022-07-11T14:21:38;30.60;66.90
35111;DHT22;21290;50.158;8.658;2022-07-11T14:24:05;30.20;67.90
35111;DHT22;21290;50.158;8.658;2022-07-11T14:26:32;30.00;67.80
35111;DHT22;21290;50.158;8.658;2022-07-11T14:28:59;29.70;68.00
35111;DHT22;21290;50.158;8.658;2022-07-11T14:31:30;29.60;69.10
35111;DHT22;21290;50.158;8.658;2022-07-11T14:33:58;29.50;70.20
35111;DHT22;21290;50.158;8.658;2022-07-11T14:36:24;29.50;70.00
35111;DHT22;21290;50.158;8.658;2022-07-11T14:38:51;29.60;70.00
35111;DHT22;21290;50.158;8.658;2022-07-11T14:41:19;29.40;70.30
35111;DHT22;21290;50.158;8.658;2022-07-11T14:43:46;29.10;70.30
35111;DHT22;21290;50.158;8.658;2022-07-11T14:46:13;28.90;71.10
35111;DHT22;21290;50.158;8.658;2022-07-11T14:48:39;28.70;70.40
35111;DHT22;21290;50.158;8.658;2022-07-11T14:51:06;28.80;70.80
35111;DHT22;21290;50.158;8.658;2022-07-11T14:53:32;28.80;69.00
35111;DHT22;21290;50.158;8.658;2022-07-11T14:56:00;28.70;69.30
35111;DHT22;21290;50.158;8.658;2022-07-11T14:58:47;28.50;69.80
35111;DHT22;21290;50.158;8.658;2022-07-11T15:01:13;28.30;70.10
35111;DHT22;21290;50.158;8.658;2022-07-11T15:03:40;28.00;70.50
35111;DHT22;21290;50.158;8.658;2022-07-11T15:06:13;28.00;71.40
35111;DHT22;21290;50.158;8.658;2022-07-11T15:08:40;28.10;71.70
35111;DHT22;21290;50.158;8.658;2022-07-11T15:11:26;28.30;71.10
35111;DHT22;21290;50.158;8.658;2022-07-11T15:14:11;28.60;71.10
35111;DHT22;21290;50.158;8.658;2022-07-11T15:16:38;28.80;70.40
35111;DHT22;21290;50.158;8.658;2022-07-11T15:19:12;28.90;69.60
35111;DHT22;21290;50.158;8.658;2022-07-11T15:21:43;28.80;70.20
35111;DHT22;21290;50.158;8.658;2022-07-11T15:24:10;28.70;70.00
35111;DHT22;21290;50.158;8.658;2022-07-11T15:26:36;28.60;70.20
35111;DHT22;21290;50.158;8.658;2022-07-11T15:29:03;28.60;70.40
35111;DHT22;21290;50.158;8.658;2022-07-11T15:31:30;28.50;71.10
35111;DHT22;21290;50.158;8.658;2022-07-11T15:33:56;28.50;71.40
35111;DHT22;21290;50.158;8.658;2022-07-11T15:36:23;28.40;70.90
35111;DHT22;21290;50.158;8.658;2022-07-11T15:38:49;28.40;70.90
35111;DHT22;21290;50.158;8.658;2022-07-11T15:41:16;28.30;71.20
35111;DHT22;21290;50.158;8.658;2022-07-11T15:43:43;28.00;71.30
35111;DHT22;21290;50.158;8.658;2022-07-11T15:46:10;27.70;71.70
35111;DHT22;21290;50.158;8.658;2022-07-11T15:48:37;27.40;72.00
35111;DHT22;21290;50.158;8.658;2022-07-11T15:51:04;27.20;72.80
35111;DHT22;21290;50.158;8.658;2022-07-11T15:53:31;27.10;73.30
35111;DHT22;21290;50.158;8.658;2022-07-11T15:56:00;27.00;73.50
35111;DHT22;21290;50.158;8.658;2022-07-11T15:58:27;26.90;73.90
35111;DHT22;21290;50.158;8.658;2022-07-11T16:00:53;26.70;73.90
35111;DHT22;21290;50.158;8.658;2022-07-11T16:03:20;26.50;74.50
35111;DHT22;21290;50.158;8.658;2022-07-11T16:05:47;26.30;75.10
35111;DHT22;21290;50.158;8.658;2022-07-11T16:08:13;26.00;75.50
35111;DHT22;21290;50.158;8.658;2022-07-11T16:10:40;25.90;75.90
35111;DHT22;21290;50.158;8.658;2022-07-11T16:13:12;25.90;76.20
35111;DHT22;21290;50.158;8.658;2022-07-11T16:15:39;25.90;76.50
35111;DHT22;21290;50.158;8.658;2022-07-11T16:18:07;26.00;76.60
35111;DHT22;21290;50.158;8.658;2022-07-11T16:20:34;26.20;76.70
35111;DHT22;21290;50.158;8.658;2022-07-11T16:23:00;26.30;76.60
35111;DHT22;21290;50.158;8.658;2022-07-11T16:25:27;26.40;76.30
35111;DHT22;21290;50.158;8.658;2022-07-11T16:27:55;26.50;76.30
35111;DHT22;21290;50.158;8.658;2022-07-11T16:30:28;26.50;76.50
35111;DHT22;21290;50.158;8.658;2022-07-11T16:33:03;26.30;76.20
35111;DHT22;21290;50.158;8.658;2022-07-11T16:35:30;26.10;76.40
35111;DHT22;21290;50.158;8.658;2022-07-11T16:37:57;26.00;77.00
35111;DHT22;21290;50.158;8.658;2022-07-11T16:40:26;25.90;77.20
35111;DHT22;21290;50.158;8.658;2022-07-11T16:43:11;25.90;77.60
35111;DHT22;21290;50.158;8.658;2022-07-11T16:45:51;25.90;77.60
35111;DHT22;21290;50.158;8.658;2022-07-11T16:48:23;25.80;77.70
35111;DHT22;21290;50.158;8.658;2022-07-11T16:50:50;25.80;77.90
35111;DHT22;21290;50.158;8.658;2022-07-11T16:53:17;25.90;78.20
35111;DHT22;21290;50.158;8.658;2022-07-11T16:55:45;25.90;78.30
35111;DHT22;21290;50.158;8.658;2022-07-11T16:58:13;25.90;78.30
35111;DHT22;21290;50.158;8.658;2022-07-11T17:00:40;26.00;78.10
35111;DHT22;21290;50.158;8.658;2022-07-11T17:03:06;25.90;78.00
35111;DHT22;21290;50.158;8.658;2022-07-11T17:05:36;25.80;78.60
35111;DHT22;21290;50.158;8.658;2022-07-11T17:08:03;25.70;78.50
35111;DHT22;21290;50.158;8.658;2022-07-11T17:10:48;25.60;78.50
35111;DHT22;21290;50.158;8.658;2022-07-11T17:13:15;25.60;79.10
35111;DHT22;21290;50.158;8.658;2022-07-11T17:15:42;25.50;78.90
35111;DHT22;21290;50.158;8.658;2022-07-11T17:18:09;25.40;78.80
35111;DHT22;21290;50.158;8.658;2022-07-11T17:20:35;25.30;78.70
35111;DHT22;21290;50.158;8.658;2022-07-11T17:23:02;25.20;79.10
35111;DHT22;21290;50.158;8.658;2022-07-11T17:25:29;25.00;79.60
35111;DHT22;21290;50.158;8.658;2022-07-11T17:27:56;24.90;79.90
35111;DHT22;21290;50.158;8.658;2022-07-11T17:30:22;24.80;79.80
35111;DHT22;21290;50.158;8.658;2022-07-11T17:32:49;24.70;79.90
35111;DHT22;21290;50.158;8.658;2022-07-11T17:35:16;24.60;80.50
35111;DHT22;21290;50.158;8.658;2022-07-11T17:37:45;24.50;80.60
35111;DHT22;21290;50.158;8.658;2022-07-11T17:40:12;24.40;80.90
35111;DHT22;21290;50.158;8.658;2022-07-11T17:42:41;24.40;81.00
35111;DHT22;21290;50.158;8.658;2022-07-11T17:45:08;24.30;81.70
35111;DHT22;21290;50.158;8.658;2022-07-11T17:47:35;24.20;81.50
35111;DHT22;21290;50.158;8.658;2022-07-11T17:50:08;24.10;82.10
35111;DHT22;21290;50.158;8.658;2022-07-11T17:52:38;23.90;82.80
35111;DHT22;21290;50.158;8.658;2022-07-11T17:55:06;23.70;82.60
35111;DHT22;21290;50.158;8.658;2022-07-11T17:57:33;23.50;83.50
35111;DHT22;21290;50.158;8.658;2022-07-11T17:59:59;23.40;83.70
35111;DHT22;21290;50.158;8.658;2022-07-11T18:02:26;23.30;84.00
35111;DHT22;21290;50.158;8.658;2022-07-11T18:04:53;23.20;84.10
35111;DHT22;21290;50.158;8.658;2022-07-11T18:07:19;23.00;84.20
35111;DHT22;21290;50.158;8.658;2022-07-11T18:09:50;22.90;84.30
35111;DHT22;21290;50.158;8.658;2022-07-11T18:12:17;22.80;85.20
35111;DHT22;21290;50.158;8.658;2022-07-11T18:14:46;22.70;85.70
35111;DHT22;21290;50.158;8.658;2022-07-11T18:17:13;22.50;86.40
35111;DHT22;21290;50.158;8.658;2022-07-11T18:19:39;22.40;87.10
35111;DHT22;21290;50.158;8.658;2022-07-11T18:22:06;22.30;87.90
35111;DHT22;21290;50.158;8.658;2022-07-11T18:24:32;22.20;88.50
35111;DHT22;21290;50.158;8.658;2022-07-11T18:27:07;22.10;89.00
35111;DHT22;21290;50.158;8.658;2022-07-11T18:29:34;22.00;89.60
35111;DHT22;21290;50.158;8.658;2022-07-11T18:32:02;21.90;90.10
35111;DHT22;21290;50.158;8.658;2022-07-11T18:34:33;21.90;90.40
35111;DHT22;21290;50.158;8.658;2022-07-11T18:37:00;21.80;90.70
35111;DHT22;21290;50.158;8.658;2022-07-11T18:39:30;21.70;90.80
35111;DHT22;21290;50.158;8.658;2022-07-11T18:42:15;21.70;91.10
35111;DHT22;21290;50.158;8.658;2022-07-11T18:44:41;21.60;91.40
35111;DHT22;21290;50.158;8.658;2022-07-11T18:47:08;21.60;91.60
35111;DHT22;21290;50.158;8.658;2022-07-11T18:49:35;21.50;91.70
35111;DHT22;21290;50.158;8.658;2022-07-11T18:52:02;21.50;92.20
35111;DHT22;21290;50.158;8.658;2022-07-11T18:54:29;21.40;92.10
35111;DHT22;21290;50.158;8.658;2022-07-11T18:56:59;21.40;92.50
35111;DHT22;21290;50.158;8.658;2022-07-11T18:59:26;21.30;92.70
35111;DHT22;21290;50.158;8.658;2022-07-11T19:01:53;21.30;92.90
35111;DHT22;21290;50.158;8.658;2022-07-11T19:04:21;21.20;93.20
35111;DHT22;21290;50.158;8.658;2022-07-11T19:06:48;21.20;93.60
35111;DHT22;21290;50.158;8.658;2022-07-11T19:09:14;21.00;94.00
35111;DHT22;21290;50.158;8.658;2022-07-11T19:11:46;21.00;94.40
35111;DHT22;21290;50.158;8.658;2022-07-11T19:14:12;20.90;94.70
35111;DHT22;21290;50.158;8.658;2022-07-11T19:16:44;20.90;95.50
35111;DHT22;21290;50.158;8.658;2022-07-11T19:19:11;20.80;96.00
35111;DHT22;21290;50.158;8.658;2022-07-11T19:21:38;20.70;96.70
35111;DHT22;21290;50.158;8.658;2022-07-11T19:24:05;20.70;97.40
35111;DHT22;21290;50.158;8.658;2022-07-11T19:26:32;20.60;98.00
35111;DHT22;21290;50.158;8.658;2022-07-11T19:28:59;20.50;98.80
35111;DHT22;21290;50.158;8.658;2022-07-11T19:31:48;20.40;99.70
35111;DHT22;21290;50.158;8.658;2022-07-11T19:34:16;20.30;99.90
35111;DHT22;21290;50.158;8.658;2022-07-11T19:36:43;20.30;99.90
35111;DHT22;21290;50.158;8.658;2022-07-11T19:39:10;20.20;99.90
35111;DHT22;21290;50.158;8.658;2022-07-11T19:41:36;20.20;99.90
35111;DHT22;21290;50.158;8.658;2022-07-11T19:44:03;20.10;99.90
35111;DHT22;21290;50.158;8.658;2022-07-11T19:46:32;20.10;99.90
35111;DHT22;21290;50.158;8.658;2022-07-11T19:48:58;20.10;99.90
35111;DHT22;21290;50.158;8.658;2022-07-11T19:51:26;20.10;99.90
35111;DHT22;21290;50.158;8.658;2022-07-11T19:53:52;20.00;99.90
35111;DHT22;21290;50.158;8.658;2022-07-11T19:56:19;19.90;99.90
35111;DHT22;21290;50.158;8.658;2022-07-11T19:59:05;19.80;99.90
35111;DHT22;21290;50.158;8.658;2022-07-11T20:01:34;19.80;99.90
35111;DHT22;21290;50.158;8.658;2022-07-11T20:04:01;19.70;99.90
35111;DHT22;21290;50.158;8.658;2022-07-11T20:06:28;19.60;99.90
35111;DHT22;21290;50.158;8.658;2022-07-11T20:08:54;19.60;99.90
35111;DHT22;21290;50.158;8.658;2022-07-11T20:11:21;19.60;99.90
35111;DHT22;21290;50.158;8.658;2022-07-11T20:13:48;19.60;99.90
35111;DHT22;21290;50.158;8.658;2022-07-11T20:16:14;19.50;99.90
35111;DHT22;21290;50.158;8.658;2022-07-11T20:18:41;19.40;99.90
35111;DHT22;21290;50.158;8.658;2022-07-11T20:21:08;19.40;99.90
35111;DHT22;21290;50.158;8.658;2022-07-11T20:23:34;19.30;99.90
35111;DHT22;21290;50.158;8.658;2022-07-11T20:26:01;19.30;99.90
35111;DHT22;21290;50.158;8.658;2022-07-11T20:28:28;19.20;99.90
35111;DHT22;21290;50.158;8.658;2022-07-11T20:30:55;19.20;99.90
35111;DHT22;21290;50.158;8.658;2022-07-11T20:33:21;19.10;99.90
35111;DHT22;21290;50.158;8.658;2022-07-11T20:35:48;19.10;99.90
35111;DHT22;21290;50.158;8.658;2022-07-11T20:38:15;19.00;99.90
35111;DHT22;21290;50.158;8.658;2022-07-11T20:40:41;19.00;99.90
35111;DHT22;21290;50.158;8.658;2022-07-11T20:43:08;18.90;99.90
35111;DHT22;21290;50.158;8.658;2022-07-11T20:45:34;18.90;99.90
35111;DHT22;21290;50.158;8.658;2022-07-11T20:48:03;18.80;99.90
35111;DHT22;21290;50.158;8.658;2022-07-11T20:50:29;18.80;99.90
35111;DHT22;21290;50.158;8.658;2022-07-11T20:52:56;18.70;99.90
35111;DHT22;21290;50.158;8.658;2022-07-11T20:55:23;18.70;99.90
35111;DHT22;21290;50.158;8.658;2022-07-11T20:57:55;18.70;99.90
35111;DHT22;21290;50.158;8.658;2022-07-11T21:00:21;18.60;99.90
35111;DHT22;21290;50.158;8.658;2022-07-11T21:02:48;18.60;99.90
35111;DHT22;21290;50.158;8.658;2022-07-11T21:05:14;18.50;99.90
35111;DHT22;21290;50.158;8.658;2022-07-11T21:07:41;18.40;99.90
35111;DHT22;21290;50.158;8.658;2022-07-11T21:10:07;18.40;99.90
35111;DHT22;21290;50.158;8.658;2022-07-11T21:12:34;18.30;99.90
35111;DHT22;21290;50.158;8.658;2022-07-11T21:15:01;18.30;99.90
35111;DHT22;21290;50.158;8.658;2022-07-11T21:17:28;18.20;99.90
35111;DHT22;21290;50.158;8.658;2022-07-11T21:19:55;18.10;99.90
35111;DHT22;21290;50.158;8.658;2022-07-11T21:22:21;18.10;99.90
35111;DHT22;21290;50.158;8.658;2022-07-11T21:24:48;18.00;99.90
35111;DHT22;21290;50.158;8.658;2022-07-11T21:27:14;18.00;99.90
35111;DHT22;21290;50.158;8.658;2022-07-11T21:30:04;17.90;99.90
35111;DHT22;21290;50.158;8.658;2022-07-11T21:32:54;17.80;99.90
35111;DHT22;21290;50.158;8.658;2022-07-11T21:35:21;17.80;99.90
35111;DHT22;21290;50.158;8.658;2022-07-11T21:37:47;17.70;99.90
35111;DHT22;21290;50.158;8.658;2022-07-11T21:40:14;17.60;99.90
35111;DHT22;21290;50.158;8.658;2022-07-11T21:42:41;17.60;99.90
35111;DHT22;21290;50.158;8.658;2022-07-11T21:45:08;17.50;99.90
35111;DHT22;21290;50.158;8.658;2022-07-11T21:47:35;17.50;99.90
35111;DHT22;21290;50.158;8.658;2022-07-11T21:50:02;17.50;99.90
35111;DHT22;21290;50.158;8.658;2022-07-11T21:52:28;17.50;99.90
35111;DHT22;21290;50.158;8.658;2022-07-11T21:54:55;17.50;99.90
35111;DHT22;21290;50.158;8.658;2022-07-11T21:57:24;17.40;99.90
35111;DHT22;21290;50.158;8.658;2022-07-11T21:59:51;17.40;99.90
35111;DHT22;21290;50.158;8.658;2022-07-11T22:02:18;17.40;99.90
35111;DHT22;21290;50.158;8.658;2022-07-11T22:04:44;17.30;99.90
35111;DHT22;21290;50.158;8.658;2022-07-11T22:07:11;17.20;99.90
35111;DHT22;21290;50.158;8.658;2022-07-11T22:09:38;17.20;99.90
35111;DHT22;21290;50.158;8.658;2022-07-11T22:12:05;17.10;99.90
35111;DHT22;21290;50.158;8.658;2022-07-11T22:14:32;17.10;99.90
35111;DHT22;21290;50.158;8.658;2022-07-11T22:16:59;17.10;99.90
35111;DHT22;21290;50.158;8.658;2022-07-11T22:19:26;17.10;99.90
35111;DHT22;21290;50.158;8.658;2022-07-11T22:21:52;17.00;99.90
35111;DHT22;21290;50.158;8.658;2022-07-11T22:24:19;17.00;99.90
35111;DHT22;21290;50.158;8.658;2022-07-11T22:26:46;16.90;99.90
35111;DHT22;21290;50.158;8.658;2022-07-11T22:29:38;16.90;99.90
35111;DHT22;21290;50.158;8.658;2022-07-11T22:32:04;16.80;99.90
35111;DHT22;21290;50.158;8.658;2022-07-11T22:34:31;16.80;99.90
35111;DHT22;21290;50.158;8.658;2022-07-11T22:36:58;16.80;99.90
35111;DHT22;21290;50.158;8.658;2022-07-11T22:39:24;16.70;99.90
35111;DHT22;21290;50.158;8.658;2022-07-11T22:41:51;16.70;99.90
35111;DHT22;21290;50.158;8.658;2022-07-11T22:44:18;16.70;99.90
35111;DHT22;21290;50.158;8.658;2022-07-11T22:47:04;16.70;99.90